Time;durP1;ratioP1;P1;durP2;ratioP2;P2;SDS_P1;SDS_P2;PMS_P1;PMS_P2;Temp;Humidity;BMP_temperature;BMP_pressure;BME280_temperature;BME280_humidity;BME280_pressure;Samples;Min_cycle;Max_cycle;Signal;HPM_P1;HPM_P2
2023/09/18 05:05:13;;;;;;;;;;;;;;;;;;;;;
2023/09/18 05:39:14;;;;;;;;;;;;;;;;;;;;;
2023/09/18 05:47:31;;;;;;;;;;;;;;;;;;;;;
2023/09/18 05:54:36;;;;;;;23.83;18.20;;;18.30;99.90;;;;;;4722515;30;20380;-96
2023/09/18 06:17:54;;;;;;;23.90;17.67;;;18.40;99.90;;;;;;4761131;30;20067;-96
2023/09/18 06:21:28;;;;;;;;;;;;;;;;;;;;;
2023/09/18 06:25:09;;;;;;;23.15;17.48;;;18.50;99.90;;;;;;4772106;29;20043;-96
2023/09/18 06:28:49;;;;;;;20.30;15.68;;;18.50;99.90;;;;;;4768606;29;20039;-96
2023/09/18 07:00:47;;;;;;;10.32;5.65;;;18.60;99.90;;;;;;4689536;30;20092;-94
2023/09/18 08:02:13;;;;;;;;;;;;;;;;;;;;;
2023/09/18 08:05:56;;;;;;;10.70;5.30;;;18.60;99.90;;;;;;4754613;30;20051;-90
2023/09/18 08:08:57;;;;;;;10.40;5.47;;;18.70;99.90;;;;;;4737227;30;20102;-94
2023/09/18 08:36:30;;;;;;;11.77;6.38;;;18.80;99.90;;;;;;4703450;30;20195;-90
2023/09/18 08:53:17;;;;;;;11.55;5.80;;;18.90;99.90;;;;;;4687495;30;20072;-93
2023/09/18 10:15:48;;;;;;;;;;;;;;;;;;;;;
2023/09/18 10:18:57;;;;;;;;;;;;;;;;;;;;;
2023/09/18 10:29:36;;;;;;;15.70;13.75;;;19.80;99.90;;;;;;4739674;30;20005;-96
2023/09/18 10:33:22;;;;;;;17.05;14.63;;;19.80;99.90;;;;;;4749616;30;20325;-96
2023/09/18 10:47:57;;;;;;;14.23;11.52;;;20.00;99.90;;;;;;2168468;24;20347;-96
2023/09/18 10:51:05;;;;;;;;;;;;;;;;;;;;;
2023/09/18 10:55:03;;;;;;;;;;;;;;;;;;;;;
2023/09/18 10:59:00;;;;;;;;;;;;;;;;;;;;;
2023/09/18 14:43:09;;;;;;;;;;;;;;;;;;;;;
2023/09/18 14:52:20;;;;;;;;;;;;;;;;;;;;;
2023/09/18 14:56:31;;;;;;;7.22;2.70;;;19.50;99.90;;;;;;4758870;30;20040;-94
2023/09/18 15:06:15;;;;;;;4.57;2.65;;;19.40;99.90;;;;;;4774083;30;20043;-93
2023/09/18 15:12:45;;;;;;;5.70;3.42;;;19.40;99.90;;;;;;4778880;29;20126;-94
2023/09/18 15:15:40;;;;;;;5.97;3.17;;;19.40;99.90;;;;;;4765966;29;20134;-96
2023/09/18 15:23:27;;;;;;;;;;;;;;;;;;;;;
2023/09/18 15:40:12;;;;;;;8.55;5.38;;;19.50;99.90;;;;;;4720369;30;20040;-96
2023/09/18 15:57:08;;;;;;;7.97;5.00;;;19.50;99.90;;;;;;4732308;30;20124;-92
2023/09/18 16:00:12;;;;;;;11.07;5.80;;;19.50;99.90;;;;;;4779525;29;20122;-91
2023/09/18 16:03:05;;;;;;;9.30;4.95;;;19.50;99.90;;;;;;4783302;29;20098;-91
2023/09/18 16:14:22;;;;;;;9.98;5.38;;;19.60;99.90;;;;;;4813953;29;20111;-92
2023/09/18 16:21:13;;;;;;;9.23;5.45;;;19.50;99.90;;;;;;4803347;29;20119;-91
2023/09/18 16:24:16;;;;;;;;;;;;;;;;;;;;;
2023/09/18 16:27:05;;;;;;;8.10;5.65;;;19.40;99.90;;;;;;4782969;29;20063;-93
2023/09/18 16:34:53;;;;;;;5.65;3.30;;;19.40;99.90;;;;;;4753590;29;20103;-93
2023/09/18 16:37:45;;;;;;;;;;;;;;;;;;;;;
2023/09/18 16:41:10;;;;;;;;;;;;;;;;;;;;;
2023/09/18 16:48:04;;;;;;;;;;;;;;;;;;;;;
2023/09/18 16:51:15;;;;;;;;;;;;;;;;;;;;;
2023/09/18 16:54:34;;;;;;;7.53;2.58;;;19.10;99.90;;;;;;4788259;30;20161;-92
2023/09/18 16:57:55;;;;;;;;;;;;;;;;;;;;;
2023/09/18 17:01:04;;;;;;;;;;;;;;;;;;;;;
2023/09/18 17:03:54;;;;;;;7.40;3.08;;;19.10;99.90;;;;;;4767558;29;20323;-93
2023/09/18 17:07:02;;;;;;;6.50;2.90;;;19.00;99.90;;;;;;4764241;29;20097;-92
2023/09/18 17:10:18;;;;;;;5.57;2.83;;;19.10;99.90;;;;;;4783162;29;20038;-91
2023/09/18 17:13:28;;;;;;;5.60;2.90;;;19.00;99.90;;;;;;4767204;29;20042;-91
2023/09/18 17:16:56;;;;;;;;;;;;;;;;;;;;;
2023/09/18 17:20:37;;;;;;;8.93;3.30;;;19.00;99.90;;;;;;4785953;29;20043;-92
2023/09/18 17:23:33;;;;;;;7.00;3.10;;;19.00;99.90;;;;;;4791435;29;20034;-91
2023/09/18 17:26:35;;;;;;;6.63;2.42;;;18.90;99.90;;;;;;4772495;29;20134;-91
2023/09/18 17:29:18;;;;;;;8.75;2.53;;;19.00;99.90;;;;;;4779111;29;20053;-91
2023/09/18 17:32:36;;;;;;;5.40;2.00;;;18.90;99.90;;;;;;4783358;29;20130;-92
2023/09/18 17:35:24;;;;;;;5.47;2.10;;;18.90;99.90;;;;;;4767025;29;20027;-91
2023/09/18 17:38:59;;;;;;;6.18;1.98;;;18.90;99.90;;;;;;4764357;29;20117;-94
2023/09/18 17:42:02;;;;;;;5.18;1.98;;;18.90;99.90;;;;;;4780446;29;20030;-90
2023/09/18 17:45:03;;;;;;;;;;;;;;;;;;;;;
2023/09/18 17:48:06;;;;;;;;;;;;;;;;;;;;;
2023/09/18 17:51:25;;;;;;;6.72;2.30;;;18.70;99.90;;;;;;4783858;29;20064;-90
2023/09/18 17:53:54;;;;;;;8.45;2.33;;;18.70;99.90;;;;;;4786610;29;20078;-91
2023/09/18 17:56:47;;;;;;;5.93;2.28;;;18.70;99.90;;;;;;4768340;30;20058;-90
2023/09/18 18:02:36;;;;;;;5.28;2.20;;;18.70;99.90;;;;;;4737856;29;20064;-91
2023/09/18 18:05:34;;;;;;;6.15;2.13;;;18.60;99.90;;;;;;4794130;29;20034;-91
2023/09/18 18:08:43;;;;;;;6.47;2.40;;;18.60;99.90;;;;;;4811795;29;20080;-91
2023/09/18 18:11:35;;;;;;;6.95;2.22;;;18.60;99.90;;;;;;4788593;29;20089;-90
2023/09/18 18:14:06;;;;;;;6.22;2.00;;;18.50;99.90;;;;;;4752196;29;20054;-91
2023/09/18 18:21:21;;;;;;;6.20;2.08;;;18.50;99.90;;;;;;4719075;30;20042;-91
2023/09/18 18:24:21;;;;;;;;;;;;;;;;;;;;;
2023/09/18 18:27:44;;;;;;;;;;;;;;;;;;;;;
2023/09/18 18:31:03;;;;;;;7.15;2.50;;;18.40;99.90;;;;;;4755279;30;20138;-92
2023/09/18 18:34:33;;;;;;;8.45;2.22;;;18.40;99.90;;;;;;4733071;29;20416;-91
2023/09/18 18:37:42;;;;;;;11.60;2.83;;;18.40;99.90;;;;;;4770777;29;20055;-91
2023/09/18 18:40:32;;;;;;;;;;;;;;;;;;;;;
2023/09/18 18:43:46;;;;;;;9.30;2.67;;;18.40;99.90;;;;;;4791330;29;20088;-91
2023/09/18 18:50:08;;;;;;;14.30;3.35;;;18.40;99.90;;;;;;4775329;29;20049;-94
2023/09/18 18:52:52;;;;;;;12.40;3.67;;;18.40;99.90;;;;;;4750389;30;20043;-92
2023/09/18 19:00:42;;;;;;;;;;;;;;;;;;;;;
2023/09/18 19:15:25;;;;;;;;;;;;;;;;;;;;;
2023/09/18 19:18:39;;;;;;;12.13;3.10;;;18.20;99.90;;;;;;4704815;30;20048;-91
2023/09/18 19:22:28;;;;;;;14.18;2.78;;;18.20;99.90;;;;;;4751586;30;20038;-94
2023/09/18 19:26:03;;;;;;;12.13;2.75;;;18.20;99.90;;;;;;4764691;30;20092;-90
2023/09/18 19:29:31;;;;;;;;;;;;;;;;;;;;;
2023/09/18 19:32:23;;;;;;;10.23;2.60;;;18.10;99.90;;;;;;4765249;30;20075;-88
2023/09/18 19:35:46;;;;;;;10.88;2.33;;;18.10;99.90;;;;;;4756195;30;20043;-91
2023/09/18 19:39:23;;;;;;;11.55;2.53;;;18.10;99.90;;;;;;4781430;30;20094;-94
2023/09/18 19:42:07;;;;;;;;;;;;;;;;;;;;;
2023/09/18 19:48:25;;;;;;;11.43;2.17;;;17.90;99.90;;;;;;4762676;30;20054;-92
2023/09/18 19:51:50;;;;;;;9.90;2.10;;;17.90;99.90;;;;;;4784656;30;20039;-91
2023/09/18 19:58:40;;;;;;;14.60;2.83;;;17.90;99.90;;;;;;4795200;30;20052;-92
2023/09/18 20:01:33;;;;;;;12.60;2.72;;;17.90;99.90;;;;;;4763829;30;20028;-92
2023/09/18 20:08:05;;;;;;;12.48;2.20;;;17.90;99.90;;;;;;4755915;30;20382;-91
2023/09/18 20:11:03;;;;;;;;;;;;;;;;;;;;;
2023/09/18 20:14:05;;;;;;;14.77;2.90;;;17.80;99.90;;;;;;4759328;30;20055;-92
2023/09/18 20:17:02;;;;;;;9.27;1.80;;;17.80;99.90;;;;;;4751380;29;20451;-92
2023/09/18 20:19:51;;;;;;;;;;;;;;;;;;;;;
2023/09/18 20:23:00;;;;;;;;;;;;;;;;;;;;;
2023/09/18 20:26:00;;;;;;;10.82;2.17;;;17.70;99.90;;;;;;4758435;30;20517;-92
2023/09/18 20:28:39;;;;;;;12.45;1.98;;;17.60;99.90;;;;;;4761249;30;20134;-93
2023/09/18 20:31:38;;;;;;;14.05;2.67;;;17.60;99.90;;;;;;4748536;30;20093;-92
2023/09/18 20:34:21;;;;;;;11.30;2.72;;;17.50;99.90;;;;;;4759395;30;20469;-93
2023/09/18 20:37:11;;;;;;;8.93;1.70;;;17.50;99.90;;;;;;4761150;30;20047;-92
2023/09/18 20:39:56;;;;;;;9.90;2.65;;;17.50;99.90;;;;;;4737630;30;20032;-92
2023/09/18 20:42:37;;;;;;;8.50;2.00;;;17.40;99.90;;;;;;4789453;30;20031;-92
2023/09/18 20:45:23;;;;;;;;;;;;;;;;;;;;;
2023/09/18 20:48:10;;;;;;;9.73;2.00;;;17.40;99.90;;;;;;4780801;30;20043;-92
2023/09/18 20:50:56;;;;;;;9.05;1.95;;;17.40;99.90;;;;;;4779601;30;20031;-92
2023/09/18 20:53:39;;;;;;;13.43;2.55;;;17.40;99.90;;;;;;4765328;30;20092;-92
2023/09/18 20:56:33;;;;;;;8.27;2.33;;;17.30;99.90;;;;;;4778002;30;20450;-93
2023/09/18 20:59:33;;;;;;;7.30;1.75;;;17.30;99.90;;;;;;4768035;29;20055;-92
2023/09/18 21:02:27;;;;;;;;;;;;;;;;;;;;;
2023/09/18 21:05:30;;;;;;;;;;;;;;;;;;;;;
2023/09/18 21:08:11;;;;;;;9.00;2.08;;;17.20;99.90;;;;;;4765056;30;20154;-92
2023/09/18 21:11:07;;;;;;;12.38;2.40;;;17.20;99.90;;;;;;4765155;30;20051;-93
2023/09/18 21:13:43;;;;;;;10.05;2.40;;;17.20;99.90;;;;;;4778209;30;20101;-93
2023/09/18 21:17:07;;;;;;;11.13;2.30;;;17.20;99.90;;;;;;4773279;30;20053;-92
2023/09/18 21:20:06;;;;;;;12.15;2.33;;;17.10;99.90;;;;;;4778056;30;20043;-93
2023/09/18 21:23:33;;;;;;;12.85;2.47;;;17.00;99.90;;;;;;4774039;30;20043;-92
2023/09/18 21:26:22;;;;;;;9.95;2.60;;;17.00;99.90;;;;;;4754670;30;20100;-93
2023/09/18 21:29:42;;;;;;;16.48;2.85;;;16.90;99.90;;;;;;4770302;30;20054;-93
2023/09/18 21:33:13;;;;;;;;;;;;;;;;;;;;;
2023/09/18 21:39:20;;;;;;;12.02;2.40;;;16.80;99.90;;;;;;4778275;30;20032;-93
2023/09/18 21:42:10;;;;;;;12.73;2.47;;;16.80;99.90;;;;;;4764921;30;20435;-93
2023/09/18 21:45:15;;;;;;;;;;;;;;;;;;;;;
2023/09/18 21:48:11;;;;;;;;;;;;;;;;;;;;;
2023/09/18 21:50:51;;;;;;;12.73;2.72;;;16.70;99.90;;;;;;4777876;30;20047;-93
2023/09/18 21:58:31;;;;;;;;;;;;;;;;;;;;;
2023/09/18 22:01:27;;;;;;;;;;;;;;;;;;;;;
2023/09/18 22:04:17;;;;;;;8.80;2.08;;;16.50;99.90;;;;;;4723634;30;20053;-93
2023/09/18 22:06:48;;;;;;;8.35;1.90;;;16.40;99.90;;;;;;4735306;30;20162;-93
2023/09/18 22:09:39;;;;;;;;;;;;;;;;;;;;;
2023/09/18 22:12:11;;;;;;;7.95;1.88;;;16.40;99.90;;;;;;4735288;30;20464;-94
2023/09/18 22:15:19;;;;;;;11.68;1.90;;;16.40;99.90;;;;;;4720484;30;20080;-93
2023/09/18 22:18:32;;;;;;;10.77;2.50;;;16.30;99.90;;;;;;4707372;30;20053;-92
2023/09/18 22:21:31;;;;;;;11.13;2.20;;;16.30;99.90;;;;;;4715656;30;20049;-93
2023/09/18 22:24:36;;;;;;;8.80;2.00;;;16.30;99.90;;;;;;4730544;30;20052;-93
2023/09/18 22:27:26;;;;;;;;;;;;;;;;;;;;;
2023/09/18 22:30:40;;;;;;;11.82;2.35;;;16.20;99.90;;;;;;4767969;30;20043;-93
2023/09/18 22:33:21;;;;;;;8.75;2.08;;;16.20;99.90;;;;;;4777929;30;20058;-94
2023/09/18 22:36:29;;;;;;;;;;;;;;;;;;;;;
2023/09/18 22:39:47;;;;;;;11.00;2.20;;;16.10;99.90;;;;;;4777254;30;20043;-93
2023/09/18 22:43:20;;;;;;;10.60;2.08;;;16.10;99.90;;;;;;4770318;30;20047;-94
2023/09/18 22:46:42;;;;;;;8.45;1.88;;;16.00;99.90;;;;;;4776753;30;20562;-93
2023/09/18 22:49:48;;;;;;;9.88;2.10;;;16.00;99.90;;;;;;4777175;30;20039;-92
2023/09/18 22:52:48;;;;;;;11.20;2.03;;;15.90;99.90;;;;;;4786376;30;20050;-93
2023/09/18 22:55:35;;;;;;;12.82;2.40;;;15.90;99.90;;;;;;4762886;30;20415;-93
2023/09/18 22:58:17;;;;;;;10.00;2.20;;;15.90;99.90;;;;;;4752544;30;20139;-93
2023/09/18 23:01:35;;;;;;;;;;;;;;;;;;;;;
2023/09/18 23:04:35;;;;;;;9.55;2.08;;;15.90;99.90;;;;;;4770006;30;20055;-94
2023/09/18 23:08:10;;;;;;;;;;;;;;;;;;;;;
2023/09/18 23:11:04;;;;;;;8.90;2.20;;;15.80;99.90;;;;;;4791212;30;20031;-94
2023/09/18 23:14:04;;;;;;;9.60;2.35;;;15.80;99.90;;;;;;4762511;30;20049;-93
2023/09/18 23:16:53;;;;;;;9.95;2.42;;;15.70;99.90;;;;;;4753603;30;20043;-93
2023/09/18 23:20:00;;;;;;;;;;;;;;;;;;;;;
2023/09/18 23:22:54;;;;;;;9.30;2.22;;;15.70;99.90;;;;;;4777406;30;20370;-93
2023/09/18 23:26:14;;;;;;;12.00;2.45;;;15.60;99.90;;;;;;4765151;30;20043;-93
2023/09/18 23:29:01;;;;;;;10.20;2.45;;;15.60;99.90;;;;;;4762188;30;20138;-93
2023/09/18 23:34:49;;;;;;;8.50;2.30;;;15.50;99.90;;;;;;4755345;30;20082;-93
2023/09/18 23:37:35;;;;;;;11.32;2.50;;;15.50;99.90;;;;;;4729945;30;20089;-93
2023/09/18 23:43:54;;;;;;;;;;;;;;;;;;;;;
2023/09/18 23:46:37;;;;;;;12.60;2.90;;;15.40;99.90;;;;;;4743371;30;20040;-94
2023/09/18 23:49:28;;;;;;;11.32;2.72;;;15.40;99.90;;;;;;4760590;30;20074;-93
2023/09/18 23:52:38;;;;;;;10.52;2.30;;;15.40;99.90;;;;;;4762617;30;20050;-94
2023/09/18 23:55:27;;;;;;;13.02;2.30;;;15.40;99.90;;;;;;4746014;30;20432;-93
2023/09/18 23:58:35;;;;;;;10.25;2.58;;;15.40;99.90;;;;;;4734497;30;20040;-93
